Terminal Aerodrome Forecast
Issued by NWS

Home | Current Version | Previous Version | Text Only | Print | Product List | Glossary On
Versions: 1 2 3 4 5 6 7 8 9 10 11 12 13 14 15 16 17 18
000
FTAK31 PAJN 261129
TAFAWG
TAF
PAWG 261129Z 2612/2712 10005KT P6SM FEW020 OVC080
     FM262000 13008KT P6SM SCT050 BKN080 OVC100
     FM270700 10006KT P6SM -RA SCT020 OVC040
      AMD LTD TO CLD VIS AND WIND TIL 261500=

USA.gov is the U.S. government's official web portal to all federal, state and local government web resources and services.